sensor_id;sensor_type;location;lat;lon;timestamp;temperature;humidity
3198;DHT22;1611;49.394;11.136;2023-08-21T00:01:29;23.20;68.80
3198;DHT22;1611;49.394;11.136;2023-08-21T00:03:55;23.20;68.60
3198;DHT22;1611;49.394;11.136;2023-08-21T00:06:22;23.20;68.60
3198;DHT22;1611;49.394;11.136;2023-08-21T00:08:49;23.20;68.30
3198;DHT22;1611;49.394;11.136;2023-08-21T00:11:16;23.20;68.50
3198;DHT22;1611;49.394;11.136;2023-08-21T00:13:43;23.20;68.10
3198;DHT22;1611;49.394;11.136;2023-08-21T00:16:11;23.20;68.00
3198;DHT22;1611;49.394;11.136;2023-08-21T00:18:38;23.20;68.30
3198;DHT22;1611;49.394;11.136;2023-08-21T00:21:05;23.20;68.80
3198;DHT22;1611;49.394;11.136;2023-08-21T00:23:31;23.20;69.10
3198;DHT22;1611;49.394;11.136;2023-08-21T00:25:58;23.10;69.50
3198;DHT22;1611;49.394;11.136;2023-08-21T00:28:25;23.10;69.80
3198;DHT22;1611;49.394;11.136;2023-08-21T00:31:00;23.00;69.90
3198;DHT22;1611;49.394;11.136;2023-08-21T00:33:29;22.90;70.70
3198;DHT22;1611;49.394;11.136;2023-08-21T00:35:55;22.90;70.90
3198;DHT22;1611;49.394;11.136;2023-08-21T00:38:22;22.90;70.80
3198;DHT22;1611;49.394;11.136;2023-08-21T00:40:49;22.90;70.70
3198;DHT22;1611;49.394;11.136;2023-08-21T00:43:16;22.90;70.90
3198;DHT22;1611;49.394;11.136;2023-08-21T00:45:44;22.90;70.60
3198;DHT22;1611;49.394;11.136;2023-08-21T00:48:12;22.90;70.30
3198;DHT22;1611;49.394;11.136;2023-08-21T00:50:41;22.90;70.20
3198;DHT22;1611;49.394;11.136;2023-08-21T00:53:08;22.90;70.00
3198;DHT22;1611;49.394;11.136;2023-08-21T00:55:35;22.90;70.10
3198;DHT22;1611;49.394;11.136;2023-08-21T00:58:02;22.90;70.00
3198;DHT22;1611;49.394;11.136;2023-08-21T01:00:30;22.90;70.10
3198;DHT22;1611;49.394;11.136;2023-08-21T01:02:57;22.90;70.80
3198;DHT22;1611;49.394;11.136;2023-08-21T01:05:23;22.90;70.90
3198;DHT22;1611;49.394;11.136;2023-08-21T01:07:57;22.90;70.60
3198;DHT22;1611;49.394;11.136;2023-08-21T01:10:33;22.80;70.80
3198;DHT22;1611;49.394;11.136;2023-08-21T01:13:09;22.90;71.60
3198;DHT22;1611;49.394;11.136;2023-08-21T01:15:39;22.90;70.40
3198;DHT22;1611;49.394;11.136;2023-08-21T01:18:07;22.90;70.40
3198;DHT22;1611;49.394;11.136;2023-08-21T01:20:35;22.90;69.80
3198;DHT22;1611;49.394;11.136;2023-08-21T01:23:05;23.00;70.10
3198;DHT22;1611;49.394;11.136;2023-08-21T01:25:33;23.10;70.10
3198;DHT22;1611;49.394;11.136;2023-08-21T01:28:01;23.10;70.20
3198;DHT22;1611;49.394;11.136;2023-08-21T01:30:29;23.10;69.90
3198;DHT22;1611;49.394;11.136;2023-08-21T01:33:00;23.20;69.80
3198;DHT22;1611;49.394;11.136;2023-08-21T01:35:31;23.20;69.50
3198;DHT22;1611;49.394;11.136;2023-08-21T01:37:59;23.30;69.10
3198;DHT22;1611;49.394;11.136;2023-08-21T01:40:27;23.40;68.90
3198;DHT22;1611;49.394;11.136;2023-08-21T01:42:55;23.40;68.60
3198;DHT22;1611;49.394;11.136;2023-08-21T01:45:22;23.40;68.20
3198;DHT22;1611;49.394;11.136;2023-08-21T01:47:49;23.50;68.80
3198;DHT22;1611;49.394;11.136;2023-08-21T01:50:16;23.50;68.80
3198;DHT22;1611;49.394;11.136;2023-08-21T01:52:42;23.50;68.60
3198;DHT22;1611;49.394;11.136;2023-08-21T01:55:09;23.40;68.80
3198;DHT22;1611;49.394;11.136;2023-08-21T01:57:37;23.30;69.70
3198;DHT22;1611;49.394;11.136;2023-08-21T02:00:06;23.30;69.90
3198;DHT22;1611;49.394;11.136;2023-08-21T02:02:33;23.20;70.80
3198;DHT22;1611;49.394;11.136;2023-08-21T02:05:00;23.20;72.30
3198;DHT22;1611;49.394;11.136;2023-08-21T02:07:28;23.10;72.60
3198;DHT22;1611;49.394;11.136;2023-08-21T02:09:55;23.00;73.70
3198;DHT22;1611;49.394;11.136;2023-08-21T02:12:21;23.00;74.10
3198;DHT22;1611;49.394;11.136;2023-08-21T02:14:48;23.00;74.30
3198;DHT22;1611;49.394;11.136;2023-08-21T02:17:16;23.10;74.40
3198;DHT22;1611;49.394;11.136;2023-08-21T02:19:43;23.00;74.50
3198;DHT22;1611;49.394;11.136;2023-08-21T02:22:10;23.00;75.20
3198;DHT22;1611;49.394;11.136;2023-08-21T02:24:36;23.00;75.50
3198;DHT22;1611;49.394;11.136;2023-08-21T02:27:03;23.10;75.50
3198;DHT22;1611;49.394;11.136;2023-08-21T02:29:30;23.00;75.80
3198;DHT22;1611;49.394;11.136;2023-08-21T02:31:57;23.00;75.80
3198;DHT22;1611;49.394;11.136;2023-08-21T02:34:26;23.00;76.00
3198;DHT22;1611;49.394;11.136;2023-08-21T02:36:53;23.00;75.80
3198;DHT22;1611;49.394;11.136;2023-08-21T02:39:19;23.00;75.80
3198;DHT22;1611;49.394;11.136;2023-08-21T02:41:46;23.10;75.70
3198;DHT22;1611;49.394;11.136;2023-08-21T02:44:13;23.00;75.40
3198;DHT22;1611;49.394;11.136;2023-08-21T02:46:40;23.00;75.50
3198;DHT22;1611;49.394;11.136;2023-08-21T02:49:06;23.00;75.80
3198;DHT22;1611;49.394;11.136;2023-08-21T02:51:34;23.00;75.40
3198;DHT22;1611;49.394;11.136;2023-08-21T02:54:01;22.90;75.30
3198;DHT22;1611;49.394;11.136;2023-08-21T02:56:28;22.90;75.40
3198;DHT22;1611;49.394;11.136;2023-08-21T02:58:55;22.90;75.60
3198;DHT22;1611;49.394;11.136;2023-08-21T03:01:21;22.90;75.60
3198;DHT22;1611;49.394;11.136;2023-08-21T03:03:48;22.90;76.10
3198;DHT22;1611;49.394;11.136;2023-08-21T03:06:15;22.90;75.80
3198;DHT22;1611;49.394;11.136;2023-08-21T03:08:43;22.80;76.00
3198;DHT22;1611;49.394;11.136;2023-08-21T03:11:10;22.70;76.40
3198;DHT22;1611;49.394;11.136;2023-08-21T03:13:38;22.60;76.40
3198;DHT22;1611;49.394;11.136;2023-08-21T03:16:04;22.60;76.50
3198;DHT22;1611;49.394;11.136;2023-08-21T03:18:32;22.60;76.30
3198;DHT22;1611;49.394;11.136;2023-08-21T03:20:59;22.50;76.80
3198;DHT22;1611;49.394;11.136;2023-08-21T03:23:25;22.40;77.10
3198;DHT22;1611;49.394;11.136;2023-08-21T03:25:53;22.50;77.00
3198;DHT22;1611;49.394;11.136;2023-08-21T03:28:20;22.40;77.00
3198;DHT22;1611;49.394;11.136;2023-08-21T03:30:47;22.40;77.20
3198;DHT22;1611;49.394;11.136;2023-08-21T03:33:14;22.30;77.50
3198;DHT22;1611;49.394;11.136;2023-08-21T03:35:40;22.40;77.20
3198;DHT22;1611;49.394;11.136;2023-08-21T03:38:07;22.40;77.10
3198;DHT22;1611;49.394;11.136;2023-08-21T03:40:34;22.40;76.80
3198;DHT22;1611;49.394;11.136;2023-08-21T03:43:02;22.40;76.90
3198;DHT22;1611;49.394;11.136;2023-08-21T03:45:29;22.40;76.70
3198;DHT22;1611;49.394;11.136;2023-08-21T03:47:55;22.40;76.50
3198;DHT22;1611;49.394;11.136;2023-08-21T03:50:22;22.30;76.60
3198;DHT22;1611;49.394;11.136;2023-08-21T03:52:49;22.40;76.50
3198;DHT22;1611;49.394;11.136;2023-08-21T03:55:16;22.40;76.30
3198;DHT22;1611;49.394;11.136;2023-08-21T03:57:42;22.40;75.90
3198;DHT22;1611;49.394;11.136;2023-08-21T04:00:11;22.30;75.90
3198;DHT22;1611;49.394;11.136;2023-08-21T04:02:38;22.30;75.60
3198;DHT22;1611;49.394;11.136;2023-08-21T04:05:05;22.30;75.60
3198;DHT22;1611;49.394;11.136;2023-08-21T04:07:32;22.20;75.60
3198;DHT22;1611;49.394;11.136;2023-08-21T04:09:58;22.20;76.10
3198;DHT22;1611;49.394;11.136;2023-08-21T04:12:25;22.20;76.00
3198;DHT22;1611;49.394;11.136;2023-08-21T04:14:52;22.20;75.90
3198;DHT22;1611;49.394;11.136;2023-08-21T04:17:22;22.20;75.70
3198;DHT22;1611;49.394;11.136;2023-08-21T04:19:49;22.20;76.00
3198;DHT22;1611;49.394;11.136;2023-08-21T04:22:15;22.20;76.10
3198;DHT22;1611;49.394;11.136;2023-08-21T04:24:42;22.20;76.10
3198;DHT22;1611;49.394;11.136;2023-08-21T04:27:09;22.20;76.00
3198;DHT22;1611;49.394;11.136;2023-08-21T04:29:36;22.30;76.00
3198;DHT22;1611;49.394;11.136;2023-08-21T04:32:03;22.30;75.70
3198;DHT22;1611;49.394;11.136;2023-08-21T04:34:32;22.40;75.40
3198;DHT22;1611;49.394;11.136;2023-08-21T04:36:58;22.30;75.40
3198;DHT22;1611;49.394;11.136;2023-08-21T04:39:25;22.40;75.30
3198;DHT22;1611;49.394;11.136;2023-08-21T04:41:52;22.40;75.00
3198;DHT22;1611;49.394;11.136;2023-08-21T04:44:19;22.50;75.00
3198;DHT22;1611;49.394;11.136;2023-08-21T04:46:47;22.50;74.70
3198;DHT22;1611;49.394;11.136;2023-08-21T04:49:14;22.50;74.60
3198;DHT22;1611;49.394;11.136;2023-08-21T04:51:42;22.60;74.30
3198;DHT22;1611;49.394;11.136;2023-08-21T04:54:09;22.60;74.10
3198;DHT22;1611;49.394;11.136;2023-08-21T04:56:36;22.60;73.90
3198;DHT22;1611;49.394;11.136;2023-08-21T04:59:02;22.60;73.80
3198;DHT22;1611;49.394;11.136;2023-08-21T05:01:29;22.60;73.50
3198;DHT22;1611;49.394;11.136;2023-08-21T05:03:56;22.50;73.60
3198;DHT22;1611;49.394;11.136;2023-08-21T05:06:23;22.50;73.50
3198;DHT22;1611;49.394;11.136;2023-08-21T05:08:51;22.60;73.20
3198;DHT22;1611;49.394;11.136;2023-08-21T05:11:17;22.70;73.20
3198;DHT22;1611;49.394;11.136;2023-08-21T05:13:44;22.70;73.10
3198;DHT22;1611;49.394;11.136;2023-08-21T05:16:11;22.70;73.10
3198;DHT22;1611;49.394;11.136;2023-08-21T05:18:37;22.70;73.10
3198;DHT22;1611;49.394;11.136;2023-08-21T05:21:04;22.80;73.00
3198;DHT22;1611;49.394;11.136;2023-08-21T05:23:31;22.80;72.60
3198;DHT22;1611;49.394;11.136;2023-08-21T05:25:59;22.80;72.60
3198;DHT22;1611;49.394;11.136;2023-08-21T05:28:26;22.90;72.80
3198;DHT22;1611;49.394;11.136;2023-08-21T05:30:52;23.00;72.70
3198;DHT22;1611;49.394;11.136;2023-08-21T05:33:19;23.10;72.60
3198;DHT22;1611;49.394;11.136;2023-08-21T05:35:46;23.10;72.60
3198;DHT22;1611;49.394;11.136;2023-08-21T05:38:12;23.10;72.30
3198;DHT22;1611;49.394;11.136;2023-08-21T05:40:40;23.20;72.40
3198;DHT22;1611;49.394;11.136;2023-08-21T05:43:08;23.20;72.00
3198;DHT22;1611;49.394;11.136;2023-08-21T05:45:35;23.30;71.60
3198;DHT22;1611;49.394;11.136;2023-08-21T05:48:02;23.40;71.20
3198;DHT22;1611;49.394;11.136;2023-08-21T05:50:29;23.50;70.90
3198;DHT22;1611;49.394;11.136;2023-08-21T05:52:56;23.60;70.80
3198;DHT22;1611;49.394;11.136;2023-08-21T05:55:24;23.70;70.30
3198;DHT22;1611;49.394;11.136;2023-08-21T05:57:50;23.90;70.00
3198;DHT22;1611;49.394;11.136;2023-08-21T06:00:19;23.90;70.00
3198;DHT22;1611;49.394;11.136;2023-08-21T06:02:45;23.90;69.60
3198;DHT22;1611;49.394;11.136;2023-08-21T06:05:12;23.90;69.70
3198;DHT22;1611;49.394;11.136;2023-08-21T06:07:39;24.00;69.90
3198;DHT22;1611;49.394;11.136;2023-08-21T06:10:07;24.10;69.70
3198;DHT22;1611;49.394;11.136;2023-08-21T06:12:37;24.10;69.20
3198;DHT22;1611;49.394;11.136;2023-08-21T06:15:04;24.10;69.20
3198;DHT22;1611;49.394;11.136;2023-08-21T06:17:34;24.00;69.90
3198;DHT22;1611;49.394;11.136;2023-08-21T06:20:01;24.00;70.20
3198;DHT22;1611;49.394;11.136;2023-08-21T06:22:28;24.20;70.30
3198;DHT22;1611;49.394;11.136;2023-08-21T06:24:55;24.30;69.50
3198;DHT22;1611;49.394;11.136;2023-08-21T06:27:22;24.40;69.80
3198;DHT22;1611;49.394;11.136;2023-08-21T06:29:48;24.60;68.30
3198;DHT22;1611;49.394;11.136;2023-08-21T06:32:15;24.70;66.30
3198;DHT22;1611;49.394;11.136;2023-08-21T06:34:43;24.90;66.00
3198;DHT22;1611;49.394;11.136;2023-08-21T06:37:10;25.00;63.60
3198;DHT22;1611;49.394;11.136;2023-08-21T06:39:38;25.20;63.30
3198;DHT22;1611;49.394;11.136;2023-08-21T06:42:05;25.30;61.90
3198;DHT22;1611;49.394;11.136;2023-08-21T06:44:31;25.40;60.80
3198;DHT22;1611;49.394;11.136;2023-08-21T06:46:58;25.50;60.70
3198;DHT22;1611;49.394;11.136;2023-08-21T06:49:25;25.60;60.10
3198;DHT22;1611;49.394;11.136;2023-08-21T06:51:53;25.70;59.80
3198;DHT22;1611;49.394;11.136;2023-08-21T06:54:20;25.90;58.70
3198;DHT22;1611;49.394;11.136;2023-08-21T06:56:46;25.90;57.90
3198;DHT22;1611;49.394;11.136;2023-08-21T06:59:13;26.00;57.40
3198;DHT22;1611;49.394;11.136;2023-08-21T07:01:40;26.00;57.40
3198;DHT22;1611;49.394;11.136;2023-08-21T07:04:07;26.00;57.50
3198;DHT22;1611;49.394;11.136;2023-08-21T07:06:34;26.00;57.00
3198;DHT22;1611;49.394;11.136;2023-08-21T07:09:02;26.00;57.30
3198;DHT22;1611;49.394;11.136;2023-08-21T07:11:29;25.90;56.60
3198;DHT22;1611;49.394;11.136;2023-08-21T07:13:56;26.00;57.20
3198;DHT22;1611;49.394;11.136;2023-08-21T07:16:23;26.10;56.70
3198;DHT22;1611;49.394;11.136;2023-08-21T07:18:52;26.10;57.00
3198;DHT22;1611;49.394;11.136;2023-08-21T07:21:18;26.10;56.50
3198;DHT22;1611;49.394;11.136;2023-08-21T07:23:46;26.20;56.20
3198;DHT22;1611;49.394;11.136;2023-08-21T07:26:14;26.20;56.60
3198;DHT22;1611;49.394;11.136;2023-08-21T07:28:40;26.20;56.20
3198;DHT22;1611;49.394;11.136;2023-08-21T07:31:07;26.10;56.50
3198;DHT22;1611;49.394;11.136;2023-08-21T07:33:34;26.20;57.20
3198;DHT22;1611;49.394;11.136;2023-08-21T07:36:02;26.20;57.50
3198;DHT22;1611;49.394;11.136;2023-08-21T07:38:29;26.40;57.50
3198;DHT22;1611;49.394;11.136;2023-08-21T07:41:03;26.40;56.30
3198;DHT22;1611;49.394;11.136;2023-08-21T07:43:32;26.60;55.20
3198;DHT22;1611;49.394;11.136;2023-08-21T07:46:02;26.60;54.80
3198;DHT22;1611;49.394;11.136;2023-08-21T07:48:29;26.70;55.10
3198;DHT22;1611;49.394;11.136;2023-08-21T07:50:56;26.80;54.40
3198;DHT22;1611;49.394;11.136;2023-08-21T07:53:23;26.80;53.40
3198;DHT22;1611;49.394;11.136;2023-08-21T07:55:49;26.90;53.30
3198;DHT22;1611;49.394;11.136;2023-08-21T07:58:16;27.00;53.70
3198;DHT22;1611;49.394;11.136;2023-08-21T08:00:45;27.00;53.60
3198;DHT22;1611;49.394;11.136;2023-08-21T08:03:12;27.00;54.10
3198;DHT22;1611;49.394;11.136;2023-08-21T08:05:40;27.00;53.60
3198;DHT22;1611;49.394;11.136;2023-08-21T08:08:07;27.10;52.90
3198;DHT22;1611;49.394;11.136;2023-08-21T08:10:36;27.20;52.40
3198;DHT22;1611;49.394;11.136;2023-08-21T08:13:03;27.20;51.70
3198;DHT22;1611;49.394;11.136;2023-08-21T08:15:30;27.20;51.90
3198;DHT22;1611;49.394;11.136;2023-08-21T08:17:58;27.20;51.40
3198;DHT22;1611;49.394;11.136;2023-08-21T08:20:24;27.20;51.20
3198;DHT22;1611;49.394;11.136;2023-08-21T08:22:51;27.20;51.80
3198;DHT22;1611;49.394;11.136;2023-08-21T08:25:18;27.20;52.20
3198;DHT22;1611;49.394;11.136;2023-08-21T08:27:45;27.20;51.60
3198;DHT22;1611;49.394;11.136;2023-08-21T08:30:12;27.40;51.10
3198;DHT22;1611;49.394;11.136;2023-08-21T08:32:40;27.60;51.40
3198;DHT22;1611;49.394;11.136;2023-08-21T08:35:11;27.70;50.30
3198;DHT22;1611;49.394;11.136;2023-08-21T08:37:38;27.80;49.00
3198;DHT22;1611;49.394;11.136;2023-08-21T08:40:06;27.90;50.00
3198;DHT22;1611;49.394;11.136;2023-08-21T08:42:34;28.00;49.50
3198;DHT22;1611;49.394;11.136;2023-08-21T08:45:03;28.10;49.80
3198;DHT22;1611;49.394;11.136;2023-08-21T08:47:32;28.20;49.10
3198;DHT22;1611;49.394;11.136;2023-08-21T08:50:02;28.30;47.90
3198;DHT22;1611;49.394;11.136;2023-08-21T08:52:34;28.40;47.30
3198;DHT22;1611;49.394;11.136;2023-08-21T08:55:02;28.40;48.00
3198;DHT22;1611;49.394;11.136;2023-08-21T08:57:29;28.50;47.90
3198;DHT22;1611;49.394;11.136;2023-08-21T08:59:56;28.60;47.50
3198;DHT22;1611;49.394;11.136;2023-08-21T09:02:24;28.70;45.20
3198;DHT22;1611;49.394;11.136;2023-08-21T09:04:52;28.70;46.80
3198;DHT22;1611;49.394;11.136;2023-08-21T09:07:19;28.90;48.90
3198;DHT22;1611;49.394;11.136;2023-08-21T09:09:48;28.90;44.90
3198;DHT22;1611;49.394;11.136;2023-08-21T09:12:17;28.90;44.10
3198;DHT22;1611;49.394;11.136;2023-08-21T09:14:44;29.10;45.10
3198;DHT22;1611;49.394;11.136;2023-08-21T09:17:12;29.20;45.40
3198;DHT22;1611;49.394;11.136;2023-08-21T09:19:39;29.30;42.20
3198;DHT22;1611;49.394;11.136;2023-08-21T09:22:10;29.20;42.20
3198;DHT22;1611;49.394;11.136;2023-08-21T09:24:38;29.30;42.10
3198;DHT22;1611;49.394;11.136;2023-08-21T09:27:13;29.30;42.20
3198;DHT22;1611;49.394;11.136;2023-08-21T09:29:41;29.30;41.70
3198;DHT22;1611;49.394;11.136;2023-08-21T09:32:08;29.50;44.10
3198;DHT22;1611;49.394;11.136;2023-08-21T09:34:36;29.60;39.80
3198;DHT22;1611;49.394;11.136;2023-08-21T09:37:05;29.60;38.80
3198;DHT22;1611;49.394;11.136;2023-08-21T09:39:34;29.80;40.70
3198;DHT22;1611;49.394;11.136;2023-08-21T09:42:02;29.90;39.40
3198;DHT22;1611;49.394;11.136;2023-08-21T09:44:37;30.00;37.30
3198;DHT22;1611;49.394;11.136;2023-08-21T09:47:07;30.10;37.30
3198;DHT22;1611;49.394;11.136;2023-08-21T09:49:35;30.20;36.50
3198;DHT22;1611;49.394;11.136;2023-08-21T09:52:04;30.40;36.60
3198;DHT22;1611;49.394;11.136;2023-08-21T09:54:31;30.50;36.80
3198;DHT22;1611;49.394;11.136;2023-08-21T09:57:01;30.50;33.80
3198;DHT22;1611;49.394;11.136;2023-08-21T09:59:29;30.70;33.00
3198;DHT22;1611;49.394;11.136;2023-08-21T10:01:58;30.90;32.40
3198;DHT22;1611;49.394;11.136;2023-08-21T10:04:28;31.10;32.30
3198;DHT22;1611;49.394;11.136;2023-08-21T10:06:56;31.20;32.70
3198;DHT22;1611;49.394;11.136;2023-08-21T10:09:23;31.50;34.10
3198;DHT22;1611;49.394;11.136;2023-08-21T10:11:52;31.80;32.40
3198;DHT22;1611;49.394;11.136;2023-08-21T10:14:21;31.90;30.70
3198;DHT22;1611;49.394;11.136;2023-08-21T10:16:49;32.20;31.10
3198;DHT22;1611;49.394;11.136;2023-08-21T10:19:19;32.20;29.60
3198;DHT22;1611;49.394;11.136;2023-08-21T10:21:47;32.30;29.30
3198;DHT22;1611;49.394;11.136;2023-08-21T10:24:26;32.50;28.90
3198;DHT22;1611;49.394;11.136;2023-08-21T10:26:53;32.80;27.60
3198;DHT22;1611;49.394;11.136;2023-08-21T10:29:20;33.00;27.90
3198;DHT22;1611;49.394;11.136;2023-08-21T10:31:58;33.00;27.00
3198;DHT22;1611;49.394;11.136;2023-08-21T10:34:33;33.30;26.00
3198;DHT22;1611;49.394;11.136;2023-08-21T10:37:05;33.50;25.80
3198;DHT22;1611;49.394;11.136;2023-08-21T10:39:33;33.60;24.50
3198;DHT22;1611;49.394;11.136;2023-08-21T10:42:04;33.50;23.70
3198;DHT22;1611;49.394;11.136;2023-08-21T10:44:47;33.70;24.40
3198;DHT22;1611;49.394;11.136;2023-08-21T10:47:18;34.10;23.90
3198;DHT22;1611;49.394;11.136;2023-08-21T10:49:50;34.30;24.60
3198;DHT22;1611;49.394;11.136;2023-08-21T10:52:21;34.50;24.90
3198;DHT22;1611;49.394;11.136;2023-08-21T10:54:50;34.50;22.90
3198;DHT22;1611;49.394;11.136;2023-08-21T10:57:18;34.80;22.70
3198;DHT22;1611;49.394;11.136;2023-08-21T10:59:55;35.20;21.30
3198;DHT22;1611;49.394;11.136;2023-08-21T11:02:23;36.10;20.80
3198;DHT22;1611;49.394;11.136;2023-08-21T11:04:52;37.20;17.90
3198;DHT22;1611;49.394;11.136;2023-08-21T11:07:19;38.20;16.40
3198;DHT22;1611;49.394;11.136;2023-08-21T11:09:47;39.00;16.30
3198;DHT22;1611;49.394;11.136;2023-08-21T11:12:16;40.10;11.60
3198;DHT22;1611;49.394;11.136;2023-08-21T11:14:43;41.30;12.10
3198;DHT22;1611;49.394;11.136;2023-08-21T11:17:10;42.20;10.80
3198;DHT22;1611;49.394;11.136;2023-08-21T11:19:38;42.80;8.70
3198;DHT22;1611;49.394;11.136;2023-08-21T11:22:07;43.80;7.60
3198;DHT22;1611;49.394;11.136;2023-08-21T11:24:42;44.70;6.30
3198;DHT22;1611;49.394;11.136;2023-08-21T11:27:10;44.80;5.50
3198;DHT22;1611;49.394;11.136;2023-08-21T11:29:38;45.60;5.90
3198;DHT22;1611;49.394;11.136;2023-08-21T11:32:08;46.10;6.00
3198;DHT22;1611;49.394;11.136;2023-08-21T11:34:35;46.60;4.40
3198;DHT22;1611;49.394;11.136;2023-08-21T11:37:03;47.00;4.80
3198;DHT22;1611;49.394;11.136;2023-08-21T11:39:43;47.60;3.00
3198;DHT22;1611;49.394;11.136;2023-08-21T11:42:11;47.70;3.30
3198;DHT22;1611;49.394;11.136;2023-08-21T11:44:43;47.90;3.50
3198;DHT22;1611;49.394;11.136;2023-08-21T11:47:11;48.80;2.30
3198;DHT22;1611;49.394;11.136;2023-08-21T11:49:39;49.30;2.40
3198;DHT22;1611;49.394;11.136;2023-08-21T11:52:07;49.00;2.80
3198;DHT22;1611;49.394;11.136;2023-08-21T11:54:34;49.10;2.70
3198;DHT22;1611;49.394;11.136;2023-08-21T11:57:05;48.90;2.50
3198;DHT22;1611;49.394;11.136;2023-08-21T11:59:33;49.10;3.00
3198;DHT22;1611;49.394;11.136;2023-08-21T12:01:59;49.40;2.80
3198;DHT22;1611;49.394;11.136;2023-08-21T12:04:27;49.60;2.30
3198;DHT22;1611;49.394;11.136;2023-08-21T12:06:54;49.70;2.40
3198;DHT22;1611;49.394;11.136;2023-08-21T12:09:20;50.00;2.40
3198;DHT22;1611;49.394;11.136;2023-08-21T12:11:47;50.30;1.50
3198;DHT22;1611;49.394;11.136;2023-08-21T12:14:15;49.80;2.00
3198;DHT22;1611;49.394;11.136;2023-08-21T12:16:42;47.80;2.90
3198;DHT22;1611;49.394;11.136;2023-08-21T12:19:10;47.20;3.90
3198;DHT22;1611;49.394;11.136;2023-08-21T12:21:37;47.70;2.70
3198;DHT22;1611;49.394;11.136;2023-08-21T12:24:05;48.00;3.20
3198;DHT22;1611;49.394;11.136;2023-08-21T12:26:32;48.80;1.70
3198;DHT22;1611;49.394;11.136;2023-08-21T12:29:01;48.70;1.80
3198;DHT22;1611;49.394;11.136;2023-08-21T12:31:29;49.20;2.30
3198;DHT22;1611;49.394;11.136;2023-08-21T12:33:56;49.50;1.50
3198;DHT22;1611;49.394;11.136;2023-08-21T12:36:23;49.60;1.80
3198;DHT22;1611;49.394;11.136;2023-08-21T12:38:50;49.30;1.70
3198;DHT22;1611;49.394;11.136;2023-08-21T12:41:17;49.00;1.50
3198;DHT22;1611;49.394;11.136;2023-08-21T12:43:43;48.20;2.40
3198;DHT22;1611;49.394;11.136;2023-08-21T12:46:11;47.40;3.20
3198;DHT22;1611;49.394;11.136;2023-08-21T12:48:39;46.00;4.10
3198;DHT22;1611;49.394;11.136;2023-08-21T12:51:06;45.30;4.40
3198;DHT22;1611;49.394;11.136;2023-08-21T12:53:32;45.30;4.80
3198;DHT22;1611;49.394;11.136;2023-08-21T12:55:59;46.60;4.10
3198;DHT22;1611;49.394;11.136;2023-08-21T12:58:26;46.60;4.30
3198;DHT22;1611;49.394;11.136;2023-08-21T13:00:53;46.90;3.30
3198;DHT22;1611;49.394;11.136;2023-08-21T13:03:20;48.00;2.90
3198;DHT22;1611;49.394;11.136;2023-08-21T13:05:48;49.10;2.60
3198;DHT22;1611;49.394;11.136;2023-08-21T13:08:15;50.20;1.70
3198;DHT22;1611;49.394;11.136;2023-08-21T13:10:42;50.40;1.40
3198;DHT22;1611;49.394;11.136;2023-08-21T13:13:09;49.00;2.80
3198;DHT22;1611;49.394;11.136;2023-08-21T13:15:35;46.80;4.90
3198;DHT22;1611;49.394;11.136;2023-08-21T13:18:03;46.90;3.90
3198;DHT22;1611;49.394;11.136;2023-08-21T13:20:30;47.40;5.00
3198;DHT22;1611;49.394;11.136;2023-08-21T13:22:58;48.50;3.20
3198;DHT22;1611;49.394;11.136;2023-08-21T13:25:24;49.60;2.20
3198;DHT22;1611;49.394;11.136;2023-08-21T13:27:52;50.50;2.00
3198;DHT22;1611;49.394;11.136;2023-08-21T13:30:19;51.30;1.30
3198;DHT22;1611;49.394;11.136;2023-08-21T13:32:47;51.60;1.00
3198;DHT22;1611;49.394;11.136;2023-08-21T13:35:14;50.50;1.00
3198;DHT22;1611;49.394;11.136;2023-08-21T13:37:42;50.40;1.00
3198;DHT22;1611;49.394;11.136;2023-08-21T13:40:10;50.30;1.00
3198;DHT22;1611;49.394;11.136;2023-08-21T13:42:40;50.60;1.00
3198;DHT22;1611;49.394;11.136;2023-08-21T13:45:08;50.40;1.00
3198;DHT22;1611;49.394;11.136;2023-08-21T13:47:37;49.60;1.50
3198;DHT22;1611;49.394;11.136;2023-08-21T13:50:04;47.50;2.40
3198;DHT22;1611;49.394;11.136;2023-08-21T13:52:31;45.10;4.20
3198;DHT22;1611;49.394;11.136;2023-08-21T13:54:59;43.60;6.00
3198;DHT22;1611;49.394;11.136;2023-08-21T13:57:28;42.10;8.00
3198;DHT22;1611;49.394;11.136;2023-08-21T13:59:54;40.70;8.80
3198;DHT22;1611;49.394;11.136;2023-08-21T14:02:21;39.50;10.50
3198;DHT22;1611;49.394;11.136;2023-08-21T14:04:48;38.60;11.20
3198;DHT22;1611;49.394;11.136;2023-08-21T14:07:15;37.80;12.60
3198;DHT22;1611;49.394;11.136;2023-08-21T14:09:42;36.90;13.40
3198;DHT22;1611;49.394;11.136;2023-08-21T14:12:09;36.50;15.20
3198;DHT22;1611;49.394;11.136;2023-08-21T14:14:37;36.20;17.10
3198;DHT22;1611;49.394;11.136;2023-08-21T14:17:04;36.10;18.40
3198;DHT22;1611;49.394;11.136;2023-08-21T14:19:31;36.00;16.60
3198;DHT22;1611;49.394;11.136;2023-08-21T14:21:58;35.90;17.40
3198;DHT22;1611;49.394;11.136;2023-08-21T14:24:25;35.60;15.60
3198;DHT22;1611;49.394;11.136;2023-08-21T14:26:51;35.20;16.20
3198;DHT22;1611;49.394;11.136;2023-08-21T14:29:18;35.00;17.60
3198;DHT22;1611;49.394;11.136;2023-08-21T14:31:46;34.70;17.60
3198;DHT22;1611;49.394;11.136;2023-08-21T14:34:14;34.60;18.50
3198;DHT22;1611;49.394;11.136;2023-08-21T14:36:41;34.30;20.40
3198;DHT22;1611;49.394;11.136;2023-08-21T14:39:08;34.00;20.90
3198;DHT22;1611;49.394;11.136;2023-08-21T14:41:36;33.80;22.20
3198;DHT22;1611;49.394;11.136;2023-08-21T14:44:03;33.60;24.60
3198;DHT22;1611;49.394;11.136;2023-08-21T14:46:31;33.50;24.60
3198;DHT22;1611;49.394;11.136;2023-08-21T14:48:59;33.60;25.00
3198;DHT22;1611;49.394;11.136;2023-08-21T14:51:25;33.60;25.20
3198;DHT22;1611;49.394;11.136;2023-08-21T14:53:52;34.10;24.50
3198;DHT22;1611;49.394;11.136;2023-08-21T14:56:19;35.40;22.90
3198;DHT22;1611;49.394;11.136;2023-08-21T14:58:47;37.80;17.50
3198;DHT22;1611;49.394;11.136;2023-08-21T15:01:14;39.30;15.90
3198;DHT22;1611;49.394;11.136;2023-08-21T15:03:42;40.10;14.80
3198;DHT22;1611;49.394;11.136;2023-08-21T15:06:10;40.30;15.20
3198;DHT22;1611;49.394;11.136;2023-08-21T15:08:38;41.50;11.40
3198;DHT22;1611;49.394;11.136;2023-08-21T15:11:07;41.30;9.20
3198;DHT22;1611;49.394;11.136;2023-08-21T15:13:34;40.30;10.00
3198;DHT22;1611;49.394;11.136;2023-08-21T15:16:01;39.20;10.80
3198;DHT22;1611;49.394;11.136;2023-08-21T15:18:28;38.40;13.40
3198;DHT22;1611;49.394;11.136;2023-08-21T15:20:55;37.60;12.80
3198;DHT22;1611;49.394;11.136;2023-08-21T15:23:23;37.00;14.30
3198;DHT22;1611;49.394;11.136;2023-08-21T15:25:50;36.60;15.40
3198;DHT22;1611;49.394;11.136;2023-08-21T15:28:17;35.90;14.70
3198;DHT22;1611;49.394;11.136;2023-08-21T15:30:44;35.00;15.80
3198;DHT22;1611;49.394;11.136;2023-08-21T15:33:11;34.50;16.60
3198;DHT22;1611;49.394;11.136;2023-08-21T15:35:37;34.10;21.50
3198;DHT22;1611;49.394;11.136;2023-08-21T15:38:04;33.60;22.50
3198;DHT22;1611;49.394;11.136;2023-08-21T15:40:32;33.20;23.80
3198;DHT22;1611;49.394;11.136;2023-08-21T15:43:01;32.90;25.30
3198;DHT22;1611;49.394;11.136;2023-08-21T15:45:29;32.70;25.60
3198;DHT22;1611;49.394;11.136;2023-08-21T15:47:56;32.40;27.00
3198;DHT22;1611;49.394;11.136;2023-08-21T15:50:23;32.00;27.80
3198;DHT22;1611;49.394;11.136;2023-08-21T15:52:50;31.80;27.90